ZSOF

Hefei Luogang International Airport

Hefei, China
TAF ZSOF 161904Z 1700/1724 27003MPS 5000 HZ NSC TX08/1707Z TNM03/00Z
Issued Valid From Valid To
Jan-16 @ 19:04 UTC
(10 hours ago)
Jan-17 @ 00:00 UTC
(5 hours ago)
Jan-18 @ 00:00 UTC
(in 19 hours)
Jan-17 @ 00:00 to Jan-18 @ 00:00
TAF ZSOF 161904Z 1700/1724 27003MPS 5000 HZ NSC TX08/1707Z TNM03/00Z
Wind Visibility Clouds Conditions
270° at 6 knots 5,005 meters
  • No significant clouds
  • Haze
TAF ZSOF 161904Z 1700/1724 27003MPS 5000 HZ NSC TX08/1707Z TNM03/00Z
Issued Jan-16 @ 19:04 UTC
(10 hours ago)
Valid From Jan-17 @ 00:00 UTC
(5 hours ago)
Valid To Jan-18 @ 00:00 UTC
(in 19 hours)
Jan-17 @ 00:00 - Jan-18 @ 00:00
Wind Visibility
270° at 6 knots 5,005 meters
Clouds
  • No significant clouds
Conditions
  • Haze